sensor_id;sensor_type;location;lat;lon;timestamp;P1;durP1;ratioP1;P2;durP2;ratioP2
8913;SDS011;4492;48.736;9.092;2022-12-13T00:02:12;33.60;;;14.67;;
8913;SDS011;4492;48.736;9.092;2022-12-13T00:04:38;34.43;;;14.60;;
8913;SDS011;4492;48.736;9.092;2022-12-13T00:07:03;37.07;;;15.13;;
8913;SDS011;4492;48.736;9.092;2022-12-13T00:09:29;30.83;;;13.93;;
8913;SDS011;4492;48.736;9.092;2022-12-13T00:11:54;30.83;;;14.23;;
8913;SDS011;4492;48.736;9.092;2022-12-13T00:14:20;30.97;;;13.37;;
8913;SDS011;4492;48.736;9.092;2022-12-13T00:16:46;32.87;;;15.03;;
8913;SDS011;4492;48.736;9.092;2022-12-13T00:19:13;30.33;;;13.90;;
8913;SDS011;4492;48.736;9.092;2022-12-13T00:21:39;34.23;;;14.73;;
8913;SDS011;4492;48.736;9.092;2022-12-13T00:24:06;34.83;;;15.47;;
8913;SDS011;4492;48.736;9.092;2022-12-13T00:26:32;32.90;;;14.17;;
8913;SDS011;4492;48.736;9.092;2022-12-13T00:28:59;32.20;;;14.23;;
8913;SDS011;4492;48.736;9.092;2022-12-13T00:31:25;38.07;;;15.53;;
8913;SDS011;4492;48.736;9.092;2022-12-13T00:33:51;33.20;;;14.53;;
8913;SDS011;4492;48.736;9.092;2022-12-13T00:36:17;37.33;;;14.80;;
8913;SDS011;4492;48.736;9.092;2022-12-13T00:38:43;35.67;;;15.40;;
8913;SDS011;4492;48.736;9.092;2022-12-13T00:41:16;37.63;;;15.60;;
8913;SDS011;4492;48.736;9.092;2022-12-13T00:43:43;35.97;;;15.60;;
8913;SDS011;4492;48.736;9.092;2022-12-13T00:46:17;38.17;;;15.30;;
8913;SDS011;4492;48.736;9.092;2022-12-13T00:48:47;35.03;;;14.00;;
8913;SDS011;4492;48.736;9.092;2022-12-13T00:51:13;37.13;;;15.10;;
8913;SDS011;4492;48.736;9.092;2022-12-13T00:53:39;37.93;;;15.47;;
8913;SDS011;4492;48.736;9.092;2022-12-13T00:56:09;35.10;;;15.40;;
8913;SDS011;4492;48.736;9.092;2022-12-13T00:58:36;38.33;;;14.73;;
8913;SDS011;4492;48.736;9.092;2022-12-13T01:01:03;35.93;;;15.23;;
8913;SDS011;4492;48.736;9.092;2022-12-13T01:03:33;36.13;;;15.90;;
8913;SDS011;4492;48.736;9.092;2022-12-13T01:05:59;35.53;;;14.20;;
8913;SDS011;4492;48.736;9.092;2022-12-13T01:08:25;32.63;;;15.10;;
8913;SDS011;4492;48.736;9.092;2022-12-13T01:10:51;31.20;;;13.87;;
8913;SDS011;4492;48.736;9.092;2022-12-13T01:13:17;36.83;;;14.70;;
8913;SDS011;4492;48.736;9.092;2022-12-13T01:15:44;39.97;;;16.30;;
8913;SDS011;4492;48.736;9.092;2022-12-13T01:18:11;34.90;;;14.80;;
8913;SDS011;4492;48.736;9.092;2022-12-13T01:20:38;36.87;;;14.17;;
8913;SDS011;4492;48.736;9.092;2022-12-13T01:23:04;41.27;;;15.60;;
8913;SDS011;4492;48.736;9.092;2022-12-13T01:25:30;34.43;;;14.67;;
8913;SDS011;4492;48.736;9.092;2022-12-13T01:27:57;37.40;;;15.03;;
8913;SDS011;4492;48.736;9.092;2022-12-13T01:30:24;34.10;;;14.57;;
8913;SDS011;4492;48.736;9.092;2022-12-13T01:32:50;32.50;;;14.60;;
8913;SDS011;4492;48.736;9.092;2022-12-13T01:35:15;36.17;;;14.77;;
8913;SDS011;4492;48.736;9.092;2022-12-13T01:37:41;32.20;;;14.63;;
8913;SDS011;4492;48.736;9.092;2022-12-13T01:40:07;36.63;;;14.70;;
8913;SDS011;4492;48.736;9.092;2022-12-13T01:42:36;40.70;;;15.07;;
8913;SDS011;4492;48.736;9.092;2022-12-13T01:45:04;35.30;;;14.40;;
8913;SDS011;4492;48.736;9.092;2022-12-13T01:47:45;36.27;;;15.07;;
8913;SDS011;4492;48.736;9.092;2022-12-13T01:50:16;39.60;;;14.47;;
8913;SDS011;4492;48.736;9.092;2022-12-13T01:52:51;36.17;;;15.43;;
8913;SDS011;4492;48.736;9.092;2022-12-13T01:55:18;33.27;;;14.43;;
8913;SDS011;4492;48.736;9.092;2022-12-13T01:57:46;38.03;;;14.80;;
8913;SDS011;4492;48.736;9.092;2022-12-13T02:00:13;36.43;;;14.70;;
8913;SDS011;4492;48.736;9.092;2022-12-13T02:02:39;36.27;;;15.33;;
8913;SDS011;4492;48.736;9.092;2022-12-13T02:05:09;38.37;;;15.00;;
8913;SDS011;4492;48.736;9.092;2022-12-13T02:07:39;37.63;;;15.37;;
8913;SDS011;4492;48.736;9.092;2022-12-13T02:10:07;36.43;;;14.57;;
8913;SDS011;4492;48.736;9.092;2022-12-13T02:12:34;38.17;;;15.90;;
8913;SDS011;4492;48.736;9.092;2022-12-13T02:15:06;38.17;;;15.17;;
8913;SDS011;4492;48.736;9.092;2022-12-13T02:22:53;39.90;;;14.87;;
8913;SDS011;4492;48.736;9.092;2022-12-13T02:28:45;39.00;;;15.83;;
8913;SDS011;4492;48.736;9.092;2022-12-13T02:32:19;39.07;;;15.37;;
8913;SDS011;4492;48.736;9.092;2022-12-13T02:40:00;39.27;;;14.97;;
8913;SDS011;4492;48.736;9.092;2022-12-13T02:42:36;32.87;;;14.17;;
8913;SDS011;4492;48.736;9.092;2022-12-13T02:45:27;29.90;;;14.17;;
8913;SDS011;4492;48.736;9.092;2022-12-13T02:47:58;33.80;;;14.67;;
8913;SDS011;4492;48.736;9.092;2022-12-13T02:50:27;32.57;;;14.83;;
8913;SDS011;4492;48.736;9.092;2022-12-13T02:52:54;43.40;;;15.37;;
8913;SDS011;4492;48.736;9.092;2022-12-13T02:55:20;37.40;;;15.37;;
8913;SDS011;4492;48.736;9.092;2022-12-13T02:57:46;39.73;;;16.40;;
8913;SDS011;4492;48.736;9.092;2022-12-13T03:00:16;45.87;;;15.23;;
8913;SDS011;4492;48.736;9.092;2022-12-13T03:11:35;40.70;;;15.13;;
8913;SDS011;4492;48.736;9.092;2022-12-13T03:14:28;33.03;;;14.03;;
8913;SDS011;4492;48.736;9.092;2022-12-13T03:16:57;36.53;;;14.10;;
8913;SDS011;4492;48.736;9.092;2022-12-13T03:19:24;33.10;;;13.57;;
8913;SDS011;4492;48.736;9.092;2022-12-13T03:21:50;36.50;;;15.20;;
8913;SDS011;4492;48.736;9.092;2022-12-13T03:24:16;37.10;;;14.67;;
8913;SDS011;4492;48.736;9.092;2022-12-13T03:26:43;36.33;;;14.23;;
8913;SDS011;4492;48.736;9.092;2022-12-13T03:29:09;31.63;;;13.67;;
8913;SDS011;4492;48.736;9.092;2022-12-13T03:31:35;33.53;;;13.37;;
8913;SDS011;4492;48.736;9.092;2022-12-13T03:34:00;33.50;;;14.03;;
8913;SDS011;4492;48.736;9.092;2022-12-13T03:36:26;35.27;;;13.90;;
8913;SDS011;4492;48.736;9.092;2022-12-13T03:38:52;34.57;;;12.87;;
8913;SDS011;4492;48.736;9.092;2022-12-13T03:41:19;33.57;;;13.57;;
8913;SDS011;4492;48.736;9.092;2022-12-13T03:43:47;33.30;;;12.93;;
8913;SDS011;4492;48.736;9.092;2022-12-13T03:46:13;39.77;;;14.63;;
8913;SDS011;4492;48.736;9.092;2022-12-13T03:48:39;33.53;;;14.23;;
8913;SDS011;4492;48.736;9.092;2022-12-13T03:51:05;33.23;;;13.10;;
8913;SDS011;4492;48.736;9.092;2022-12-13T03:53:30;33.53;;;13.97;;
8913;SDS011;4492;48.736;9.092;2022-12-13T03:55:56;35.70;;;13.03;;
8913;SDS011;4492;48.736;9.092;2022-12-13T03:58:22;31.20;;;13.10;;
8913;SDS011;4492;48.736;9.092;2022-12-13T04:00:47;33.50;;;14.53;;
8913;SDS011;4492;48.736;9.092;2022-12-13T04:03:13;37.07;;;13.67;;
8913;SDS011;4492;48.736;9.092;2022-12-13T04:05:39;28.93;;;13.23;;
8913;SDS011;4492;48.736;9.092;2022-12-13T04:08:05;32.23;;;13.33;;
8913;SDS011;4492;48.736;9.092;2022-12-13T04:10:30;34.63;;;13.73;;
8913;SDS011;4492;48.736;9.092;2022-12-13T04:12:56;33.40;;;13.07;;
8913;SDS011;4492;48.736;9.092;2022-12-13T04:15:40;31.50;;;12.57;;
8913;SDS011;4492;48.736;9.092;2022-12-13T04:18:13;35.10;;;12.97;;
8913;SDS011;4492;48.736;9.092;2022-12-13T04:20:40;31.30;;;12.50;;
8913;SDS011;4492;48.736;9.092;2022-12-13T04:23:05;34.17;;;12.53;;
8913;SDS011;4492;48.736;9.092;2022-12-13T04:25:31;33.23;;;12.63;;
8913;SDS011;4492;48.736;9.092;2022-12-13T04:27:56;35.27;;;12.53;;
8913;SDS011;4492;48.736;9.092;2022-12-13T04:30:22;30.07;;;12.50;;
8913;SDS011;4492;48.736;9.092;2022-12-13T04:32:47;31.30;;;12.23;;
8913;SDS011;4492;48.736;9.092;2022-12-13T04:35:13;27.63;;;11.83;;
8913;SDS011;4492;48.736;9.092;2022-12-13T04:37:39;28.63;;;12.57;;
8913;SDS011;4492;48.736;9.092;2022-12-13T04:40:04;28.70;;;11.57;;
8913;SDS011;4492;48.736;9.092;2022-12-13T04:42:30;27.10;;;11.50;;
8913;SDS011;4492;48.736;9.092;2022-12-13T04:44:56;24.97;;;10.97;;
8913;SDS011;4492;48.736;9.092;2022-12-13T04:47:21;27.13;;;11.73;;
8913;SDS011;4492;48.736;9.092;2022-12-13T04:49:47;26.83;;;10.90;;
8913;SDS011;4492;48.736;9.092;2022-12-13T04:52:12;29.23;;;12.10;;
8913;SDS011;4492;48.736;9.092;2022-12-13T04:54:38;30.47;;;12.90;;
8913;SDS011;4492;48.736;9.092;2022-12-13T04:57:04;32.23;;;13.07;;
8913;SDS011;4492;48.736;9.092;2022-12-13T04:59:31;31.27;;;11.63;;
8913;SDS011;4492;48.736;9.092;2022-12-13T05:01:56;30.47;;;12.00;;
8913;SDS011;4492;48.736;9.092;2022-12-13T05:04:22;29.53;;;12.33;;
8913;SDS011;4492;48.736;9.092;2022-12-13T05:06:47;26.90;;;12.13;;
8913;SDS011;4492;48.736;9.092;2022-12-13T05:09:13;29.27;;;11.13;;
8913;SDS011;4492;48.736;9.092;2022-12-13T05:11:39;31.33;;;11.70;;
8913;SDS011;4492;48.736;9.092;2022-12-13T05:14:04;26.67;;;10.97;;
8913;SDS011;4492;48.736;9.092;2022-12-13T05:16:30;32.60;;;12.53;;
8913;SDS011;4492;48.736;9.092;2022-12-13T05:18:55;25.27;;;10.53;;
8913;SDS011;4492;48.736;9.092;2022-12-13T05:21:21;26.20;;;11.43;;
8913;SDS011;4492;48.736;9.092;2022-12-13T05:23:47;26.63;;;10.97;;
8913;SDS011;4492;48.736;9.092;2022-12-13T05:26:12;32.40;;;11.03;;
8913;SDS011;4492;48.736;9.092;2022-12-13T05:28:38;27.13;;;11.23;;
8913;SDS011;4492;48.736;9.092;2022-12-13T05:31:07;25.23;;;11.27;;
8913;SDS011;4492;48.736;9.092;2022-12-13T05:33:34;26.87;;;10.17;;
8913;SDS011;4492;48.736;9.092;2022-12-13T05:36:00;23.97;;;10.50;;
8913;SDS011;4492;48.736;9.092;2022-12-13T05:38:28;25.03;;;10.60;;
8913;SDS011;4492;48.736;9.092;2022-12-13T05:40:54;27.83;;;10.20;;
8913;SDS011;4492;48.736;9.092;2022-12-13T05:43:19;24.63;;;11.13;;
8913;SDS011;4492;48.736;9.092;2022-12-13T05:45:45;27.87;;;11.47;;
8913;SDS011;4492;48.736;9.092;2022-12-13T05:48:11;27.27;;;10.83;;
8913;SDS011;4492;48.736;9.092;2022-12-13T05:50:36;23.30;;;10.70;;
8913;SDS011;4492;48.736;9.092;2022-12-13T05:53:03;26.40;;;10.67;;
8913;SDS011;4492;48.736;9.092;2022-12-13T05:55:29;29.43;;;11.77;;
8913;SDS011;4492;48.736;9.092;2022-12-13T05:57:54;23.93;;;11.07;;
8913;SDS011;4492;48.736;9.092;2022-12-13T06:00:20;24.73;;;10.73;;
8913;SDS011;4492;48.736;9.092;2022-12-13T06:02:45;29.20;;;10.83;;
8913;SDS011;4492;48.736;9.092;2022-12-13T06:05:11;28.17;;;10.70;;
8913;SDS011;4492;48.736;9.092;2022-12-13T06:07:37;26.63;;;10.70;;
8913;SDS011;4492;48.736;9.092;2022-12-13T06:10:03;27.67;;;9.83;;
8913;SDS011;4492;48.736;9.092;2022-12-13T06:12:29;24.27;;;10.00;;
8913;SDS011;4492;48.736;9.092;2022-12-13T06:14:55;22.20;;;10.23;;
8913;SDS011;4492;48.736;9.092;2022-12-13T06:17:20;26.70;;;11.50;;
8913;SDS011;4492;48.736;9.092;2022-12-13T06:19:48;26.57;;;10.80;;
8913;SDS011;4492;48.736;9.092;2022-12-13T06:22:14;23.10;;;10.20;;
8913;SDS011;4492;48.736;9.092;2022-12-13T06:24:40;25.17;;;10.67;;
8913;SDS011;4492;48.736;9.092;2022-12-13T06:27:05;29.10;;;10.77;;
8913;SDS011;4492;48.736;9.092;2022-12-13T06:29:31;28.83;;;10.80;;
8913;SDS011;4492;48.736;9.092;2022-12-13T06:31:57;28.07;;;10.10;;
8913;SDS011;4492;48.736;9.092;2022-12-13T06:34:24;27.23;;;11.43;;
8913;SDS011;4492;48.736;9.092;2022-12-13T06:36:50;30.30;;;11.60;;
8913;SDS011;4492;48.736;9.092;2022-12-13T06:39:16;27.57;;;11.50;;
8913;SDS011;4492;48.736;9.092;2022-12-13T06:41:42;22.93;;;11.00;;
8913;SDS011;4492;48.736;9.092;2022-12-13T06:44:07;31.13;;;11.87;;
8913;SDS011;4492;48.736;9.092;2022-12-13T06:46:33;24.60;;;11.57;;
8913;SDS011;4492;48.736;9.092;2022-12-13T06:48:59;25.07;;;10.40;;
8913;SDS011;4492;48.736;9.092;2022-12-13T06:51:25;24.63;;;10.33;;
8913;SDS011;4492;48.736;9.092;2022-12-13T06:53:51;24.03;;;10.43;;
8913;SDS011;4492;48.736;9.092;2022-12-13T06:56:16;27.03;;;10.67;;
8913;SDS011;4492;48.736;9.092;2022-12-13T06:58:42;26.30;;;10.40;;
8913;SDS011;4492;48.736;9.092;2022-12-13T07:01:09;23.77;;;10.40;;
8913;SDS011;4492;48.736;9.092;2022-12-13T07:03:36;21.27;;;10.33;;
8913;SDS011;4492;48.736;9.092;2022-12-13T07:06:03;26.20;;;10.47;;
8913;SDS011;4492;48.736;9.092;2022-12-13T07:08:31;30.17;;;10.60;;
8913;SDS011;4492;48.736;9.092;2022-12-13T07:10:57;26.80;;;10.47;;
8913;SDS011;4492;48.736;9.092;2022-12-13T07:13:22;29.87;;;10.70;;
8913;SDS011;4492;48.736;9.092;2022-12-13T07:15:48;25.07;;;10.30;;
8913;SDS011;4492;48.736;9.092;2022-12-13T07:18:14;26.10;;;10.17;;
8913;SDS011;4492;48.736;9.092;2022-12-13T07:20:41;24.77;;;9.93;;
8913;SDS011;4492;48.736;9.092;2022-12-13T07:23:07;28.07;;;11.17;;
8913;SDS011;4492;48.736;9.092;2022-12-13T07:25:32;26.20;;;10.23;;
8913;SDS011;4492;48.736;9.092;2022-12-13T07:27:59;29.60;;;11.27;;
8913;SDS011;4492;48.736;9.092;2022-12-13T07:30:26;28.57;;;10.47;;
8913;SDS011;4492;48.736;9.092;2022-12-13T07:32:51;25.57;;;10.40;;
8913;SDS011;4492;48.736;9.092;2022-12-13T07:35:17;28.13;;;10.67;;
8913;SDS011;4492;48.736;9.092;2022-12-13T07:37:43;26.37;;;10.47;;
8913;SDS011;4492;48.736;9.092;2022-12-13T07:40:09;25.30;;;10.87;;
8913;SDS011;4492;48.736;9.092;2022-12-13T07:42:34;25.27;;;10.63;;
8913;SDS011;4492;48.736;9.092;2022-12-13T07:45:00;28.07;;;10.33;;
8913;SDS011;4492;48.736;9.092;2022-12-13T07:47:29;26.97;;;11.33;;
8913;SDS011;4492;48.736;9.092;2022-12-13T07:49:56;24.10;;;10.37;;
8913;SDS011;4492;48.736;9.092;2022-12-13T07:52:22;23.10;;;9.83;;
8913;SDS011;4492;48.736;9.092;2022-12-13T07:54:47;25.63;;;10.00;;
8913;SDS011;4492;48.736;9.092;2022-12-13T07:57:13;26.43;;;11.13;;
8913;SDS011;4492;48.736;9.092;2022-12-13T07:59:38;24.33;;;10.70;;
8913;SDS011;4492;48.736;9.092;2022-12-13T08:02:08;25.07;;;10.73;;
8913;SDS011;4492;48.736;9.092;2022-12-13T08:04:37;26.77;;;10.17;;
8913;SDS011;4492;48.736;9.092;2022-12-13T08:07:05;24.37;;;10.67;;
8913;SDS011;4492;48.736;9.092;2022-12-13T08:09:32;24.03;;;9.77;;
8913;SDS011;4492;48.736;9.092;2022-12-13T08:11:58;22.37;;;9.37;;
8913;SDS011;4492;48.736;9.092;2022-12-13T08:14:24;23.10;;;10.60;;
8913;SDS011;4492;48.736;9.092;2022-12-13T08:16:50;25.47;;;9.70;;
8913;SDS011;4492;48.736;9.092;2022-12-13T08:19:15;26.57;;;10.30;;
8913;SDS011;4492;48.736;9.092;2022-12-13T08:21:41;24.33;;;10.83;;
8913;SDS011;4492;48.736;9.092;2022-12-13T08:24:06;23.60;;;9.87;;
8913;SDS011;4492;48.736;9.092;2022-12-13T08:26:32;22.13;;;10.23;;
8913;SDS011;4492;48.736;9.092;2022-12-13T08:28:58;22.33;;;10.40;;
8913;SDS011;4492;48.736;9.092;2022-12-13T08:31:23;26.03;;;10.90;;
8913;SDS011;4492;48.736;9.092;2022-12-13T08:33:49;24.53;;;10.33;;
8913;SDS011;4492;48.736;9.092;2022-12-13T08:36:15;24.87;;;10.63;;
8913;SDS011;4492;48.736;9.092;2022-12-13T08:38:42;23.40;;;10.00;;
8913;SDS011;4492;48.736;9.092;2022-12-13T08:41:08;26.40;;;12.07;;
8913;SDS011;4492;48.736;9.092;2022-12-13T08:43:34;25.80;;;10.40;;
8913;SDS011;4492;48.736;9.092;2022-12-13T08:46:00;26.83;;;10.37;;
8913;SDS011;4492;48.736;9.092;2022-12-13T08:48:26;25.60;;;11.23;;
8913;SDS011;4492;48.736;9.092;2022-12-13T08:50:52;21.50;;;10.20;;
8913;SDS011;4492;48.736;9.092;2022-12-13T08:53:18;23.30;;;11.03;;
8913;SDS011;4492;48.736;9.092;2022-12-13T08:55:43;21.90;;;9.97;;
8913;SDS011;4492;48.736;9.092;2022-12-13T08:58:09;20.20;;;9.73;;
8913;SDS011;4492;48.736;9.092;2022-12-13T09:00:35;26.67;;;11.43;;
8913;SDS011;4492;48.736;9.092;2022-12-13T09:03:02;25.83;;;11.10;;
8913;SDS011;4492;48.736;9.092;2022-12-13T09:05:28;23.57;;;10.37;;
8913;SDS011;4492;48.736;9.092;2022-12-13T09:07:54;25.53;;;10.50;;
8913;SDS011;4492;48.736;9.092;2022-12-13T09:10:21;24.50;;;10.60;;
8913;SDS011;4492;48.736;9.092;2022-12-13T09:12:47;23.10;;;9.87;;
8913;SDS011;4492;48.736;9.092;2022-12-13T09:15:12;24.83;;;10.10;;
8913;SDS011;4492;48.736;9.092;2022-12-13T09:17:38;22.93;;;9.70;;
8913;SDS011;4492;48.736;9.092;2022-12-13T09:20:05;22.80;;;10.40;;
8913;SDS011;4492;48.736;9.092;2022-12-13T09:22:33;21.03;;;10.23;;
8913;SDS011;4492;48.736;9.092;2022-12-13T09:24:59;22.17;;;9.87;;
8913;SDS011;4492;48.736;9.092;2022-12-13T09:27:26;18.90;;;9.77;;
8913;SDS011;4492;48.736;9.092;2022-12-13T09:29:52;22.90;;;10.10;;
8913;SDS011;4492;48.736;9.092;2022-12-13T09:32:17;22.73;;;10.60;;
8913;SDS011;4492;48.736;9.092;2022-12-13T09:34:43;20.50;;;10.30;;
8913;SDS011;4492;48.736;9.092;2022-12-13T09:37:08;24.63;;;10.50;;
8913;SDS011;4492;48.736;9.092;2022-12-13T09:39:36;27.73;;;11.43;;
8913;SDS011;4492;48.736;9.092;2022-12-13T09:42:02;21.87;;;10.50;;
8913;SDS011;4492;48.736;9.092;2022-12-13T09:46:55;23.00;;;10.10;;
8913;SDS011;4492;48.736;9.092;2022-12-13T09:49:31;23.63;;;10.53;;
8913;SDS011;4492;48.736;9.092;2022-12-13T09:52:00;26.83;;;10.37;;
8913;SDS011;4492;48.736;9.092;2022-12-13T09:54:27;23.03;;;10.13;;
8913;SDS011;4492;48.736;9.092;2022-12-13T09:56:54;23.00;;;10.07;;
8913;SDS011;4492;48.736;9.092;2022-12-13T09:59:27;21.70;;;10.10;;
8913;SDS011;4492;48.736;9.092;2022-12-13T10:02:01;25.83;;;10.90;;
8913;SDS011;4492;48.736;9.092;2022-12-13T10:04:38;23.60;;;10.53;;
8913;SDS011;4492;48.736;9.092;2022-12-13T10:07:04;22.03;;;9.97;;
8913;SDS011;4492;48.736;9.092;2022-12-13T10:09:38;18.77;;;9.13;;
8913;SDS011;4492;48.736;9.092;2022-12-13T10:12:04;18.37;;;9.20;;
8913;SDS011;4492;48.736;9.092;2022-12-13T10:14:35;18.80;;;8.93;;
8913;SDS011;4492;48.736;9.092;2022-12-13T10:17:07;16.73;;;8.20;;
8913;SDS011;4492;48.736;9.092;2022-12-13T10:19:34;17.87;;;8.83;;
8913;SDS011;4492;48.736;9.092;2022-12-13T10:22:04;20.07;;;8.73;;
8913;SDS011;4492;48.736;9.092;2022-12-13T10:30:11;16.83;;;7.87;;
8913;SDS011;4492;48.736;9.092;2022-12-13T10:33:02;16.07;;;8.30;;
8913;SDS011;4492;48.736;9.092;2022-12-13T10:37:55;16.57;;;7.10;;
8913;SDS011;4492;48.736;9.092;2022-12-13T10:40:30;15.80;;;8.17;;
8913;SDS011;4492;48.736;9.092;2022-12-13T10:43:13;14.03;;;7.13;;
8913;SDS011;4492;48.736;9.092;2022-12-13T10:45:41;16.07;;;8.33;;
8913;SDS011;4492;48.736;9.092;2022-12-13T10:48:21;17.23;;;8.30;;
8913;SDS011;4492;48.736;9.092;2022-12-13T10:53:31;14.40;;;7.83;;
8913;SDS011;4492;48.736;9.092;2022-12-13T10:56:00;16.43;;;7.13;;
8913;SDS011;4492;48.736;9.092;2022-12-13T10:58:34;16.03;;;7.13;;
8913;SDS011;4492;48.736;9.092;2022-12-13T11:03:43;17.23;;;7.57;;
8913;SDS011;4492;48.736;9.092;2022-12-13T11:06:24;18.80;;;7.73;;
8913;SDS011;4492;48.736;9.092;2022-12-13T11:08:51;16.80;;;7.93;;
8913;SDS011;4492;48.736;9.092;2022-12-13T11:11:17;20.10;;;7.80;;
8913;SDS011;4492;48.736;9.092;2022-12-13T11:13:55;13.33;;;7.17;;
8913;SDS011;4492;48.736;9.092;2022-12-13T11:16:31;19.90;;;8.10;;
8913;SDS011;4492;48.736;9.092;2022-12-13T11:19:10;18.50;;;7.03;;
8913;SDS011;4492;48.736;9.092;2022-12-13T11:21:46;14.13;;;6.97;;
8913;SDS011;4492;48.736;9.092;2022-12-13T11:24:17;14.80;;;6.90;;
8913;SDS011;4492;48.736;9.092;2022-12-13T11:32:41;14.27;;;6.73;;
8913;SDS011;4492;48.736;9.092;2022-12-13T11:40:26;16.27;;;6.80;;
8913;SDS011;4492;48.736;9.092;2022-12-13T11:43:10;14.33;;;6.73;;
8913;SDS011;4492;48.736;9.092;2022-12-13T11:46:01;10.67;;;5.90;;
8913;SDS011;4492;48.736;9.092;2022-12-13T11:48:52;13.57;;;6.03;;
8913;SDS011;4492;48.736;9.092;2022-12-13T11:51:25;15.30;;;7.27;;
8913;SDS011;4492;48.736;9.092;2022-12-13T11:54:09;13.13;;;7.07;;
8913;SDS011;4492;48.736;9.092;2022-12-13T11:56:46;19.70;;;7.07;;
8913;SDS011;4492;48.736;9.092;2022-12-13T12:01:57;13.30;;;5.90;;
8913;SDS011;4492;48.736;9.092;2022-12-13T12:04:40;10.27;;;5.70;;
8913;SDS011;4492;48.736;9.092;2022-12-13T12:07:14;12.33;;;6.10;;
8913;SDS011;4492;48.736;9.092;2022-12-13T12:10:03;12.73;;;5.70;;
8913;SDS011;4492;48.736;9.092;2022-12-13T12:12:54;14.53;;;6.50;;
8913;SDS011;4492;48.736;9.092;2022-12-13T12:15:41;16.00;;;6.83;;
8913;SDS011;4492;48.736;9.092;2022-12-13T12:18:35;16.10;;;6.30;;
8913;SDS011;4492;48.736;9.092;2022-12-13T12:24:00;13.50;;;6.07;;
8913;SDS011;4492;48.736;9.092;2022-12-13T12:26:44;10.67;;;5.47;;
8913;SDS011;4492;48.736;9.092;2022-12-13T12:29:46;11.43;;;5.63;;
8913;SDS011;4492;48.736;9.092;2022-12-13T12:32:44;14.17;;;5.97;;
8913;SDS011;4492;48.736;9.092;2022-12-13T12:41:09;11.63;;;6.07;;
8913;SDS011;4492;48.736;9.092;2022-12-13T12:43:49;10.57;;;5.90;;
8913;SDS011;4492;48.736;9.092;2022-12-13T12:46:44;14.33;;;5.70;;
8913;SDS011;4492;48.736;9.092;2022-12-13T12:55:09;11.27;;;5.50;;
8913;SDS011;4492;48.736;9.092;2022-12-13T13:01:15;16.50;;;6.13;;
8913;SDS011;4492;48.736;9.092;2022-12-13T13:03:21;12.87;;;5.50;;
8913;SDS011;4492;48.736;9.092;2022-12-13T13:05:52;12.50;;;5.77;;
8913;SDS011;4492;48.736;9.092;2022-12-13T13:08:44;15.87;;;6.13;;
8913;SDS011;4492;48.736;9.092;2022-12-13T13:11:15;15.37;;;6.23;;
8913;SDS011;4492;48.736;9.092;2022-12-13T13:21:44;12.97;;;5.60;;
8913;SDS011;4492;48.736;9.092;2022-12-13T13:24:24;11.50;;;5.37;;
8913;SDS011;4492;48.736;9.092;2022-12-13T13:29:53;9.83;;;5.07;;
8913;SDS011;4492;48.736;9.092;2022-12-13T13:32:32;11.40;;;5.80;;
8913;SDS011;4492;48.736;9.092;2022-12-13T13:37:52;10.97;;;5.33;;
8913;SDS011;4492;48.736;9.092;2022-12-13T13:40:29;13.43;;;5.50;;
8913;SDS011;4492;48.736;9.092;2022-12-13T14:03:04;9.97;;;5.20;;
8913;SDS011;4492;48.736;9.092;2022-12-13T14:30:49;17.27;;;7.80;;
8913;SDS011;4492;48.736;9.092;2022-12-13T14:33:22;20.47;;;7.80;;
8913;SDS011;4492;48.736;9.092;2022-12-13T14:35:49;15.17;;;7.33;;
8913;SDS011;4492;48.736;9.092;2022-12-13T14:38:21;21.80;;;8.67;;
8913;SDS011;4492;48.736;9.092;2022-12-13T14:40:58;20.27;;;7.70;;
8913;SDS011;4492;48.736;9.092;2022-12-13T14:43:29;19.77;;;7.80;;
8913;SDS011;4492;48.736;9.092;2022-12-13T14:46:00;16.67;;;7.33;;
8913;SDS011;4492;48.736;9.092;2022-12-13T14:48:35;24.73;;;8.70;;
8913;SDS011;4492;48.736;9.092;2022-12-13T14:51:17;15.20;;;7.40;;
8913;SDS011;4492;48.736;9.092;2022-12-13T14:53:53;16.70;;;7.10;;
8913;SDS011;4492;48.736;9.092;2022-12-13T14:56:19;18.10;;;8.20;;
8913;SDS011;4492;48.736;9.092;2022-12-13T14:58:55;16.13;;;7.57;;
8913;SDS011;4492;48.736;9.092;2022-12-13T15:01:32;14.37;;;7.67;;
8913;SDS011;4492;48.736;9.092;2022-12-13T15:09:43;17.43;;;7.43;;
8913;SDS011;4492;48.736;9.092;2022-12-13T15:12:11;20.97;;;7.83;;
8913;SDS011;4492;48.736;9.092;2022-12-13T15:14:42;21.83;;;8.03;;
8913;SDS011;4492;48.736;9.092;2022-12-13T15:17:21;19.37;;;8.60;;
8913;SDS011;4492;48.736;9.092;2022-12-13T15:19:59;16.80;;;7.07;;
8913;SDS011;4492;48.736;9.092;2022-12-13T15:22:36;14.10;;;6.73;;
8913;SDS011;4492;48.736;9.092;2022-12-13T15:25:01;14.23;;;7.23;;
8913;SDS011;4492;48.736;9.092;2022-12-13T15:27:27;16.17;;;6.60;;
8913;SDS011;4492;48.736;9.092;2022-12-13T15:29:56;16.23;;;7.30;;
8913;SDS011;4492;48.736;9.092;2022-12-13T15:32:22;16.27;;;6.80;;
8913;SDS011;4492;48.736;9.092;2022-12-13T15:34:48;20.03;;;6.93;;
8913;SDS011;4492;48.736;9.092;2022-12-13T15:37:22;19.63;;;7.30;;
8913;SDS011;4492;48.736;9.092;2022-12-13T15:39:53;13.40;;;6.87;;
8913;SDS011;4492;48.736;9.092;2022-12-13T15:42:25;19.90;;;6.50;;
8913;SDS011;4492;48.736;9.092;2022-12-13T15:44:57;12.77;;;6.57;;
8913;SDS011;4492;48.736;9.092;2022-12-13T15:47:25;15.33;;;6.67;;
8913;SDS011;4492;48.736;9.092;2022-12-13T15:52:32;16.77;;;6.70;;
8913;SDS011;4492;48.736;9.092;2022-12-13T15:57:32;12.47;;;5.57;;
8913;SDS011;4492;48.736;9.092;2022-12-13T16:00:14;23.70;;;6.67;;
8913;SDS011;4492;48.736;9.092;2022-12-13T16:05:29;16.70;;;7.00;;
8913;SDS011;4492;48.736;9.092;2022-12-13T16:08:00;15.97;;;7.20;;
8913;SDS011;4492;48.736;9.092;2022-12-13T16:10:28;15.57;;;6.00;;
8913;SDS011;4492;48.736;9.092;2022-12-13T16:12:56;19.10;;;6.97;;
8913;SDS011;4492;48.736;9.092;2022-12-13T16:15:31;15.33;;;7.20;;
8913;SDS011;4492;48.736;9.092;2022-12-13T16:20:45;15.20;;;6.40;;
8913;SDS011;4492;48.736;9.092;2022-12-13T16:23:11;14.77;;;6.20;;
8913;SDS011;4492;48.736;9.092;2022-12-13T16:25:37;15.77;;;6.30;;
8913;SDS011;4492;48.736;9.092;2022-12-13T16:28:03;15.27;;;6.50;;
8913;SDS011;4492;48.736;9.092;2022-12-13T16:33:17;13.80;;;6.97;;
8913;SDS011;4492;48.736;9.092;2022-12-13T16:35:43;12.03;;;6.50;;
8913;SDS011;4492;48.736;9.092;2022-12-13T16:38:12;15.10;;;6.63;;
8913;SDS011;4492;48.736;9.092;2022-12-13T16:40:39;12.77;;;6.20;;
8913;SDS011;4492;48.736;9.092;2022-12-13T16:43:05;13.90;;;6.90;;
8913;SDS011;4492;48.736;9.092;2022-12-13T16:45:39;12.93;;;6.60;;
8913;SDS011;4492;48.736;9.092;2022-12-13T16:48:10;20.33;;;7.13;;
8913;SDS011;4492;48.736;9.092;2022-12-13T16:50:40;15.80;;;6.20;;
8913;SDS011;4492;48.736;9.092;2022-12-13T16:53:07;13.23;;;6.30;;
8913;SDS011;4492;48.736;9.092;2022-12-13T16:55:33;17.53;;;7.63;;
8913;SDS011;4492;48.736;9.092;2022-12-13T16:58:01;15.63;;;6.83;;
8913;SDS011;4492;48.736;9.092;2022-12-13T17:00:31;15.93;;;7.40;;
8913;SDS011;4492;48.736;9.092;2022-12-13T17:02:57;14.40;;;6.70;;
8913;SDS011;4492;48.736;9.092;2022-12-13T17:05:24;16.47;;;7.37;;
8913;SDS011;4492;48.736;9.092;2022-12-13T17:07:51;14.47;;;6.73;;
8913;SDS011;4492;48.736;9.092;2022-12-13T17:10:17;16.57;;;7.40;;
8913;SDS011;4492;48.736;9.092;2022-12-13T17:12:44;18.13;;;7.00;;
8913;SDS011;4492;48.736;9.092;2022-12-13T17:15:10;17.87;;;7.80;;
8913;SDS011;4492;48.736;9.092;2022-12-13T17:17:41;17.63;;;7.07;;
8913;SDS011;4492;48.736;9.092;2022-12-13T17:20:09;14.00;;;7.27;;
8913;SDS011;4492;48.736;9.092;2022-12-13T17:22:36;16.10;;;7.87;;
8913;SDS011;4492;48.736;9.092;2022-12-13T17:25:03;21.63;;;8.03;;
8913;SDS011;4492;48.736;9.092;2022-12-13T17:27:29;17.90;;;7.57;;
8913;SDS011;4492;48.736;9.092;2022-12-13T17:29:55;19.43;;;6.73;;
8913;SDS011;4492;48.736;9.092;2022-12-13T17:32:21;13.43;;;6.80;;
8913;SDS011;4492;48.736;9.092;2022-12-13T17:34:47;14.27;;;6.43;;